sensor_id;sensor_type;location;lat;lon;timestamp;pressure;altitude;pressure_sealevel;temperature;humidity
34742;BME280;20968;42.696;23.360;2023-02-13T00:01:11;97000.28;;;2.59;74.05
34742;BME280;20968;42.696;23.360;2023-02-13T00:03:38;97009.63;;;2.62;73.98
34742;BME280;20968;42.696;23.360;2023-02-13T00:06:03;97011.56;;;2.61;73.73
34742;BME280;20968;42.696;23.360;2023-02-13T00:08:29;97008.03;;;2.50;73.56
34742;BME280;20968;42.696;23.360;2023-02-13T00:10:54;97001.44;;;2.58;73.62
34742;BME280;20968;42.696;23.360;2023-02-13T00:13:20;96992.13;;;2.59;73.29
34742;BME280;20968;42.696;23.360;2023-02-13T00:15:54;97004.94;;;2.55;73.28
34742;BME280;20968;42.696;23.360;2023-02-13T00:18:19;97011.13;;;2.56;73.80
34742;BME280;20968;42.696;23.360;2023-02-13T00:20:45;97016.97;;;2.54;73.61
34742;BME280;20968;42.696;23.360;2023-02-13T00:23:10;97012.69;;;2.57;73.13
34742;BME280;20968;42.696;23.360;2023-02-13T00:25:35;97002.16;;;2.45;73.25
34742;BME280;20968;42.696;23.360;2023-02-13T00:28:01;97002.97;;;2.49;73.48
34742;BME280;20968;42.696;23.360;2023-02-13T00:30:28;97015.38;;;2.46;73.44
34742;BME280;20968;42.696;23.360;2023-02-13T00:32:54;97022.44;;;2.61;73.00
34742;BME280;20968;42.696;23.360;2023-02-13T00:35:19;97015.09;;;2.65;72.51
34742;BME280;20968;42.696;23.360;2023-02-13T00:37:44;97013.09;;;2.59;72.98
34742;BME280;20968;42.696;23.360;2023-02-13T00:40:10;97022.47;;;2.68;72.70
34742;BME280;20968;42.696;23.360;2023-02-13T00:42:36;97020.53;;;2.69;72.76
34742;BME280;20968;42.696;23.360;2023-02-13T00:45:01;97016.63;;;2.70;72.28
34742;BME280;20968;42.696;23.360;2023-02-13T00:47:27;97020.59;;;2.79;72.35
34742;BME280;20968;42.696;23.360;2023-02-13T00:49:52;97027.19;;;2.78;72.08
34742;BME280;20968;42.696;23.360;2023-02-13T00:52:18;97028.72;;;2.76;72.14
34742;BME280;20968;42.696;23.360;2023-02-13T00:54:43;97024.88;;;2.80;72.65
34742;BME280;20968;42.696;23.360;2023-02-13T00:57:09;97013.53;;;2.68;72.21
34742;BME280;20968;42.696;23.360;2023-02-13T00:59:34;97022.13;;;2.73;72.36
34742;BME280;20968;42.696;23.360;2023-02-13T01:01:59;97032.63;;;2.78;72.14
34742;BME280;20968;42.696;23.360;2023-02-13T01:04:25;97026.81;;;2.83;72.24
34742;BME280;20968;42.696;23.360;2023-02-13T01:06:50;97020.97;;;2.81;72.21
34742;BME280;20968;42.696;23.360;2023-02-13T01:09:16;97032.25;;;2.90;71.82
34742;BME280;20968;42.696;23.360;2023-02-13T01:11:41;97031.91;;;2.95;71.72
34742;BME280;20968;42.696;23.360;2023-02-13T01:14:07;97022.59;;;2.96;71.44
34742;BME280;20968;42.696;23.360;2023-02-13T01:16:32;97024.97;;;3.08;70.65
34742;BME280;20968;42.696;23.360;2023-02-13T01:18:57;97031.97;;;3.09;70.91
34742;BME280;20968;42.696;23.360;2023-02-13T01:21:23;97021.84;;;3.09;71.26
34742;BME280;20968;42.696;23.360;2023-02-13T01:23:48;97036.63;;;3.19;70.97
34742;BME280;20968;42.696;23.360;2023-02-13T01:26:22;97030.44;;;3.25;70.65
34742;BME280;20968;42.696;23.360;2023-02-13T01:28:50;97038.63;;;3.29;70.07
34742;BME280;20968;42.696;23.360;2023-02-13T01:31:16;97036.63;;;3.19;69.90
34742;BME280;20968;42.696;23.360;2023-02-13T01:33:41;97035.50;;;3.27;69.68
34742;BME280;20968;42.696;23.360;2023-02-13T01:36:11;97030.03;;;3.27;68.79
34742;BME280;20968;42.696;23.360;2023-02-13T01:38:38;97035.88;;;3.29;68.75
34742;BME280;20968;42.696;23.360;2023-02-13T01:41:04;97040.56;;;3.28;68.04
34742;BME280;20968;42.696;23.360;2023-02-13T01:46:22;97042.50;;;3.31;67.92
34742;BME280;20968;42.696;23.360;2023-02-13T01:48:50;97042.13;;;3.26;67.99
34742;BME280;20968;42.696;23.360;2023-02-13T01:51:22;97053.03;;;3.33;66.96
34742;BME280;20968;42.696;23.360;2023-02-13T01:53:53;97045.22;;;3.31;67.18
34742;BME280;20968;42.696;23.360;2023-02-13T01:56:40;97062.75;;;3.34;66.83
34742;BME280;20968;42.696;23.360;2023-02-13T01:59:11;97059.59;;;3.25;66.68
34742;BME280;20968;42.696;23.360;2023-02-13T02:01:38;97049.88;;;3.20;67.33
34742;BME280;20968;42.696;23.360;2023-02-13T02:04:08;97054.50;;;3.09;67.17
34742;BME280;20968;42.696;23.360;2023-02-13T02:06:42;97039.72;;;3.07;67.55
34742;BME280;20968;42.696;23.360;2023-02-13T02:09:16;97055.66;;;3.15;67.55
34742;BME280;20968;42.696;23.360;2023-02-13T02:12:20;97035.44;;;3.09;68.24
34742;BME280;20968;42.696;23.360;2023-02-13T02:14:42;97035.78;;;2.94;68.36
34742;BME280;20968;42.696;23.360;2023-02-13T02:17:08;97035.41;;;2.96;68.43
34742;BME280;20968;42.696;23.360;2023-02-13T02:19:45;97038.91;;;2.96;68.53
34742;BME280;20968;42.696;23.360;2023-02-13T02:36:03;97038.09;;;2.85;70.25
34742;BME280;20968;42.696;23.360;2023-02-13T02:38:39;97039.25;;;2.91;70.16
34742;BME280;20968;42.696;23.360;2023-02-13T02:41:45;97059.13;;;2.95;70.34
34742;BME280;20968;42.696;23.360;2023-02-13T02:44:31;97052.53;;;3.00;70.24
34742;BME280;20968;42.696;23.360;2023-02-13T02:50:00;97063.00;;;2.98;69.65
34742;BME280;20968;42.696;23.360;2023-02-13T02:58:09;97075.47;;;3.09;68.99
34742;BME280;20968;42.696;23.360;2023-02-13T03:00:56;97074.69;;;3.08;69.28
34742;BME280;20968;42.696;23.360;2023-02-13T03:03:40;97076.22;;;2.99;68.46
34742;BME280;20968;42.696;23.360;2023-02-13T03:06:45;97070.44;;;3.11;68.42
34742;BME280;20968;42.696;23.360;2023-02-13T03:09:22;97076.25;;;3.13;67.71
34742;BME280;20968;42.696;23.360;2023-02-13T03:12:08;97073.13;;;3.04;67.55
34742;BME280;20968;42.696;23.360;2023-02-13T03:14:54;97078.56;;;3.04;67.24
34742;BME280;20968;42.696;23.360;2023-02-13T03:17:19;97071.16;;;2.98;66.89
34742;BME280;20968;42.696;23.360;2023-02-13T03:23:20;97073.88;;;2.94;66.21
34742;BME280;20968;42.696;23.360;2023-02-13T03:29:03;97078.88;;;2.89;65.72
34742;BME280;20968;42.696;23.360;2023-02-13T03:34:31;97081.19;;;2.83;65.71
34742;BME280;20968;42.696;23.360;2023-02-13T03:37:27;97088.59;;;2.86;66.09
34742;BME280;20968;42.696;23.360;2023-02-13T03:42:56;97074.59;;;2.84;65.82
34742;BME280;20968;42.696;23.360;2023-02-13T03:45:27;97081.19;;;2.83;65.45
34742;BME280;20968;42.696;23.360;2023-02-13T03:48:16;97073.41;;;2.82;65.54
34742;BME280;20968;42.696;23.360;2023-02-13T03:51:02;97086.25;;;2.85;65.32
34742;BME280;20968;42.696;23.360;2023-02-13T03:53:30;97085.47;;;2.84;65.41
34742;BME280;20968;42.696;23.360;2023-02-13T03:55:59;97076.88;;;2.75;65.25
34742;BME280;20968;42.696;23.360;2023-02-13T03:58:51;97071.00;;;2.70;65.39
34742;BME280;20968;42.696;23.360;2023-02-13T04:01:37;97066.75;;;2.65;65.16
34742;BME280;20968;42.696;23.360;2023-02-13T04:04:10;97078.44;;;2.76;64.75
34742;BME280;20968;42.696;23.360;2023-02-13T04:06:45;97078.81;;;2.71;65.10
34742;BME280;20968;42.696;23.360;2023-02-13T04:09:11;97072.97;;;2.69;65.19
34742;BME280;20968;42.696;23.360;2023-02-13T04:11:57;97077.66;;;2.72;65.14
34742;BME280;20968;42.696;23.360;2023-02-13T04:14:48;97069.44;;;2.62;65.12
34742;BME280;20968;42.696;23.360;2023-02-13T04:17:21;97081.50;;;2.64;65.50
34742;BME280;20968;42.696;23.360;2023-02-13T04:19:49;97081.84;;;2.63;65.45
34742;BME280;20968;42.696;23.360;2023-02-13T04:22:15;97088.50;;;2.65;65.12
34742;BME280;20968;42.696;23.360;2023-02-13T04:24:41;97082.59;;;2.56;65.48
34742;BME280;20968;42.696;23.360;2023-02-13T04:27:08;97086.91;;;2.61;64.86
34742;BME280;20968;42.696;23.360;2023-02-13T04:29:34;97090.34;;;2.54;65.07
34742;BME280;20968;42.696;23.360;2023-02-13T04:32:00;97078.69;;;2.50;65.16
34742;BME280;20968;42.696;23.360;2023-02-13T04:34:25;97082.97;;;2.58;64.67
34742;BME280;20968;42.696;23.360;2023-02-13T04:36:50;97071.28;;;2.47;65.37
34742;BME280;20968;42.696;23.360;2023-02-13T04:39:16;97087.63;;;2.51;65.71
34742;BME280;20968;42.696;23.360;2023-02-13T04:41:41;97077.91;;;2.53;65.48
34742;BME280;20968;42.696;23.360;2023-02-13T04:44:07;97080.66;;;2.57;65.58
34742;BME280;20968;42.696;23.360;2023-02-13T04:46:32;97069.34;;;2.51;65.62
34742;BME280;20968;42.696;23.360;2023-02-13T04:48:57;97080.63;;;2.53;65.39
34742;BME280;20968;42.696;23.360;2023-02-13T04:51:23;97076.00;;;2.54;65.62
34742;BME280;20968;42.696;23.360;2023-02-13T04:53:48;97088.81;;;2.60;65.28
34742;BME280;20968;42.696;23.360;2023-02-13T04:56:14;97090.75;;;2.56;65.48
34742;BME280;20968;42.696;23.360;2023-02-13T04:58:39;97097.00;;;2.64;65.55
34742;BME280;20968;42.696;23.360;2023-02-13T05:01:12;97100.50;;;2.61;65.80
34742;BME280;20968;42.696;23.360;2023-02-13T05:03:38;97095.41;;;2.59;65.65
34742;BME280;20968;42.696;23.360;2023-02-13T05:06:04;97083.03;;;2.62;65.43
34742;BME280;20968;42.696;23.360;2023-02-13T05:08:29;97087.69;;;2.65;64.84
34742;BME280;20968;42.696;23.360;2023-02-13T05:10:55;97110.25;;;2.65;65.14
34742;BME280;20968;42.696;23.360;2023-02-13T05:13:20;97100.88;;;2.63;65.46
34742;BME280;20968;42.696;23.360;2023-02-13T05:15:47;97106.69;;;2.61;65.89
34742;BME280;20968;42.696;23.360;2023-02-13T05:18:12;97119.56;;;2.68;65.92
34742;BME280;20968;42.696;23.360;2023-02-13T05:20:39;97114.91;;;2.68;66.16
34742;BME280;20968;42.696;23.360;2023-02-13T05:23:12;97118.03;;;2.70;65.13
34742;BME280;20968;42.696;23.360;2023-02-13T05:25:48;97119.94;;;2.70;65.35
34742;BME280;20968;42.696;23.360;2023-02-13T05:28:14;97111.75;;;2.63;64.99
34742;BME280;20968;42.696;23.360;2023-02-13T05:30:58;97115.75;;;2.76;69.05
34742;BME280;20968;42.696;23.360;2023-02-13T05:33:23;97115.28;;;3.62;77.19
34742;BME280;20968;42.696;23.360;2023-02-13T05:35:49;97108.66;;;3.46;73.23
34742;BME280;20968;42.696;23.360;2023-02-13T05:38:14;97121.84;;;3.40;69.69
34742;BME280;20968;42.696;23.360;2023-02-13T05:40:40;97131.16;;;3.32;69.04
34742;BME280;20968;42.696;23.360;2023-02-13T05:43:05;97131.13;;;3.25;68.16
34742;BME280;20968;42.696;23.360;2023-02-13T05:45:30;97124.50;;;3.19;67.88
34742;BME280;20968;42.696;23.360;2023-02-13T05:47:56;97129.13;;;3.15;66.88
34742;BME280;20968;42.696;23.360;2023-02-13T05:50:22;97131.09;;;3.15;66.14
34742;BME280;20968;42.696;23.360;2023-02-13T05:52:47;97133.03;;;3.14;66.54
34742;BME280;20968;42.696;23.360;2023-02-13T05:55:12;97136.53;;;3.18;65.00
34742;BME280;20968;42.696;23.360;2023-02-13T05:57:38;97136.50;;;3.08;64.88
34742;BME280;20968;42.696;23.360;2023-02-13T06:00:04;97127.53;;;3.04;65.11
34742;BME280;20968;42.696;23.360;2023-02-13T06:02:30;97139.22;;;3.08;65.03
34742;BME280;20968;42.696;23.360;2023-02-13T06:04:55;97132.97;;;3.07;65.43
34742;BME280;20968;42.696;23.360;2023-02-13T06:07:20;97142.72;;;3.12;65.00
34742;BME280;20968;42.696;23.360;2023-02-13T06:09:46;97150.53;;;3.13;65.43
34742;BME280;20968;42.696;23.360;2023-02-13T06:12:11;97145.41;;;3.08;65.44
34742;BME280;20968;42.696;23.360;2023-02-13T06:14:37;97146.22;;;3.09;65.21
34742;BME280;20968;42.696;23.360;2023-02-13T06:17:02;97146.22;;;3.09;65.18
34742;BME280;20968;42.696;23.360;2023-02-13T06:19:32;97149.28;;;3.04;65.56
34742;BME280;20968;42.696;23.360;2023-02-13T06:21:58;97148.50;;;3.04;65.35
34742;BME280;20968;42.696;23.360;2023-02-13T06:24:23;97152.41;;;3.06;65.23
34742;BME280;20968;42.696;23.360;2023-02-13T06:26:49;97160.59;;;3.13;65.66
34742;BME280;20968;42.696;23.360;2023-02-13T06:29:14;97149.38;;;3.14;65.47
34742;BME280;20968;42.696;23.360;2023-02-13T06:31:40;97153.63;;;3.19;65.36
34742;BME280;20968;42.696;23.360;2023-02-13T06:34:05;97158.28;;;3.15;65.51
34742;BME280;20968;42.696;23.360;2023-02-13T06:36:31;97152.84;;;3.15;65.54
34742;BME280;20968;42.696;23.360;2023-02-13T06:38:56;97166.13;;;3.30;65.19
34742;BME280;20968;42.696;23.360;2023-02-13T06:41:21;97164.63;;;3.36;65.01
34742;BME280;20968;42.696;23.360;2023-02-13T06:43:47;97164.63;;;3.40;64.65
34742;BME280;20968;42.696;23.360;2023-02-13T06:46:12;97166.22;;;3.48;64.63
34742;BME280;20968;42.696;23.360;2023-02-13T06:48:38;97170.50;;;3.49;64.78
34742;BME280;20968;42.696;23.360;2023-02-13T06:51:03;97155.34;;;3.51;65.15
34742;BME280;20968;42.696;23.360;2023-02-13T06:53:29;97160.00;;;3.58;64.92
34742;BME280;20968;42.696;23.360;2023-02-13T06:55:55;97163.53;;;3.62;64.88
34742;BME280;20968;42.696;23.360;2023-02-13T06:58:22;97163.56;;;3.69;64.94
34742;BME280;20968;42.696;23.360;2023-02-13T07:00:49;97168.63;;;3.77;64.84
34742;BME280;20968;42.696;23.360;2023-02-13T07:03:14;97143.31;;;3.59;64.75
34742;BME280;20968;42.696;23.360;2023-02-13T07:05:41;97163.56;;;3.65;63.91
34742;BME280;20968;42.696;23.360;2023-02-13T07:08:07;97154.25;;;3.80;64.70
34742;BME280;20968;42.696;23.360;2023-02-13T07:10:32;97152.34;;;3.91;63.76
34742;BME280;20968;42.696;23.360;2023-02-13T07:12:58;97139.09;;;3.89;64.37
34742;BME280;20968;42.696;23.360;2023-02-13T07:15:25;97162.88;;;4.17;64.32
34742;BME280;20968;42.696;23.360;2023-02-13T07:17:56;97165.22;;;4.25;63.94
34742;BME280;20968;42.696;23.360;2023-02-13T07:20:23;97166.41;;;4.24;63.59
34742;BME280;20968;42.696;23.360;2023-02-13T07:22:48;97172.22;;;4.26;63.88
34742;BME280;20968;42.696;23.360;2023-02-13T07:25:14;97166.00;;;4.33;62.85
34742;BME280;20968;42.696;23.360;2023-02-13T07:27:39;97170.69;;;4.32;63.50
34742;BME280;20968;42.696;23.360;2023-02-13T07:30:05;97165.25;;;4.39;63.34
34742;BME280;20968;42.696;23.360;2023-02-13T07:32:31;97172.63;;;4.49;62.75
34742;BME280;20968;42.696;23.360;2023-02-13T07:34:56;97167.19;;;4.49;63.04
34742;BME280;20968;42.696;23.360;2023-02-13T07:37:22;97162.53;;;4.46;62.96
34742;BME280;20968;42.696;23.360;2023-02-13T07:39:47;97173.03;;;4.48;62.85
34742;BME280;20968;42.696;23.360;2023-02-13T07:42:12;97163.28;;;4.50;63.09
34742;BME280;20968;42.696;23.360;2023-02-13T07:44:38;97172.63;;;4.59;62.43
34742;BME280;20968;42.696;23.360;2023-02-13T07:47:03;97162.91;;;4.65;62.59
34742;BME280;20968;42.696;23.360;2023-02-13T07:49:29;97167.97;;;4.70;62.93
34742;BME280;20968;42.696;23.360;2023-02-13T07:51:57;97167.56;;;4.75;60.78
34742;BME280;20968;42.696;23.360;2023-02-13T07:54:23;97168.75;;;4.78;61.19
34742;BME280;20968;42.696;23.360;2023-02-13T07:56:48;97169.91;;;4.59;61.79
34742;BME280;20968;42.696;23.360;2023-02-13T07:59:14;97177.31;;;4.62;62.26
34742;BME280;20968;42.696;23.360;2023-02-13T08:01:40;97176.16;;;4.60;62.13
34742;BME280;20968;42.696;23.360;2023-02-13T08:04:07;97174.59;;;4.66;61.79
34742;BME280;20968;42.696;23.360;2023-02-13T08:06:32;97163.28;;;4.71;61.99
34742;BME280;20968;42.696;23.360;2023-02-13T08:08:58;97173.41;;;4.67;62.83
34742;BME280;20968;42.696;23.360;2023-02-13T08:11:42;97166.38;;;4.76;62.68
34742;BME280;20968;42.696;23.360;2023-02-13T08:14:24;97161.72;;;4.73;62.18
34742;BME280;20968;42.696;23.360;2023-02-13T08:16:52;97167.16;;;4.84;62.43
34742;BME280;20968;42.696;23.360;2023-02-13T08:19:18;97165.22;;;4.77;62.00
34742;BME280;20968;42.696;23.360;2023-02-13T08:21:44;97164.44;;;4.80;61.94
34742;BME280;20968;42.696;23.360;2023-02-13T08:24:10;97162.47;;;4.88;61.65
34742;BME280;20968;42.696;23.360;2023-02-13T08:26:36;97159.75;;;4.88;61.87
34742;BME280;20968;42.696;23.360;2023-02-13T08:29:04;97166.75;;;4.96;61.85
34742;BME280;20968;42.696;23.360;2023-02-13T08:31:29;97176.09;;;5.12;61.62
34742;BME280;20968;42.696;23.360;2023-02-13T08:33:56;97169.81;;;5.19;61.56
34742;BME280;20968;42.696;23.360;2023-02-13T08:36:22;97176.06;;;5.23;61.67
34742;BME280;20968;42.696;23.360;2023-02-13T08:38:47;97162.41;;;5.26;61.17
34742;BME280;20968;42.696;23.360;2023-02-13T08:41:13;97169.44;;;5.24;61.38
34742;BME280;20968;42.696;23.360;2023-02-13T08:43:39;97162.00;;;5.31;62.11
34742;BME280;20968;42.696;23.360;2023-02-13T08:46:05;97154.56;;;5.35;61.08
34742;BME280;20968;42.696;23.360;2023-02-13T08:48:30;97167.47;;;5.21;61.11
34742;BME280;20968;42.696;23.360;2023-02-13T08:50:56;97172.19;;;5.10;61.46
34742;BME280;20968;42.696;23.360;2023-02-13T08:53:22;97160.91;;;4.87;61.34
34742;BME280;20968;42.696;23.360;2023-02-13T08:55:55;97165.22;;;4.77;61.87
34742;BME280;20968;42.696;23.360;2023-02-13T08:58:21;97160.94;;;4.73;62.34
34742;BME280;20968;42.696;23.360;2023-02-13T09:00:46;97156.28;;;4.70;63.24
34742;BME280;20968;42.696;23.360;2023-02-13T09:03:12;97159.34;;;4.82;62.54
34742;BME280;20968;42.696;23.360;2023-02-13T09:05:37;97169.91;;;4.87;62.96
34742;BME280;20968;42.696;23.360;2023-02-13T09:08:03;97159.38;;;4.79;62.32
34742;BME280;20968;42.696;23.360;2023-02-13T09:10:30;97164.06;;;4.71;62.56
34742;BME280;20968;42.696;23.360;2023-02-13T09:12:56;97162.91;;;4.76;63.21
34742;BME280;20968;42.696;23.360;2023-02-13T09:15:21;97152.75;;;4.73;62.97
34742;BME280;20968;42.696;23.360;2023-02-13T09:17:46;97164.84;;;4.86;63.09
34742;BME280;20968;42.696;23.360;2023-02-13T09:20:12;97156.66;;;4.89;62.61
34742;BME280;20968;42.696;23.360;2023-02-13T09:22:39;97157.44;;;4.83;62.63
34742;BME280;20968;42.696;23.360;2023-02-13T09:25:05;97155.09;;;4.85;63.15
34742;BME280;20968;42.696;23.360;2023-02-13T09:27:31;97154.69;;;4.83;62.84
34742;BME280;20968;42.696;23.360;2023-02-13T09:29:57;97146.91;;;4.88;63.02
34742;BME280;20968;42.696;23.360;2023-02-13T09:32:23;97149.59;;;4.99;62.58
34742;BME280;20968;42.696;23.360;2023-02-13T09:34:48;97151.94;;;4.97;63.08
34742;BME280;20968;42.696;23.360;2023-02-13T09:37:14;97137.16;;;4.80;62.58
34742;BME280;20968;42.696;23.360;2023-02-13T09:39:39;97143.78;;;4.76;62.57
34742;BME280;20968;42.696;23.360;2023-02-13T09:42:19;97136.00;;;4.60;63.45
34742;BME280;20968;42.696;23.360;2023-02-13T09:44:47;97132.53;;;4.53;64.46
34742;BME280;20968;42.696;23.360;2023-02-13T09:47:35;97133.69;;;4.59;64.72
34742;BME280;20968;42.696;23.360;2023-02-13T09:50:22;97131.75;;;4.63;63.82
34742;BME280;20968;42.696;23.360;2023-02-13T09:52:50;97117.72;;;4.61;63.82
34742;BME280;20968;42.696;23.360;2023-02-13T10:01:02;97115.72;;;4.89;63.63
34742;BME280;20968;42.696;23.360;2023-02-13T10:03:30;97122.69;;;4.94;63.05
34742;BME280;20968;42.696;23.360;2023-02-13T10:06:07;97105.88;;;5.16;62.79
34742;BME280;20968;42.696;23.360;2023-02-13T10:08:40;97103.47;;;5.36;62.54
34742;BME280;20968;42.696;23.360;2023-02-13T10:16:25;97098.75;;;5.46;62.10
34742;BME280;20968;42.696;23.360;2023-02-13T10:19:22;97085.41;;;5.55;61.66
34742;BME280;20968;42.696;23.360;2023-02-13T10:22:04;97082.22;;;5.67;61.69
34742;BME280;20968;42.696;23.360;2023-02-13T10:27:22;97080.44;;;6.01;61.01
34742;BME280;20968;42.696;23.360;2023-02-13T10:30:08;97070.16;;;6.19;60.50
34742;BME280;20968;42.696;23.360;2023-02-13T10:32:58;97065.44;;;6.23;59.83
34742;BME280;20968;42.696;23.360;2023-02-13T10:36:03;97077.06;;;6.34;58.97
34742;BME280;20968;42.696;23.360;2023-02-13T10:38:34;97067.66;;;6.38;58.89
34742;BME280;20968;42.696;23.360;2023-02-13T10:41:23;97065.94;;;6.55;58.57
34742;BME280;20968;42.696;23.360;2023-02-13T10:46:49;97052.59;;;6.97;56.47
34742;BME280;20968;42.696;23.360;2023-02-13T10:49:34;97050.59;;;7.01;56.24
34742;BME280;20968;42.696;23.360;2023-02-13T11:03:26;97033.63;;;6.80;56.16
34742;BME280;20968;42.696;23.360;2023-02-13T11:05:53;97031.19;;;6.89;56.42
34742;BME280;20968;42.696;23.360;2023-02-13T11:08:22;97019.97;;;7.09;56.23
34742;BME280;20968;42.696;23.360;2023-02-13T11:10:48;97020.88;;;7.29;55.79
34742;BME280;20968;42.696;23.360;2023-02-13T11:15:41;97002.66;;;7.46;55.03
34742;BME280;20968;42.696;23.360;2023-02-13T11:18:18;96997.44;;;7.55;54.95
34742;BME280;20968;42.696;23.360;2023-02-13T11:20:45;96998.22;;;7.81;53.84
34742;BME280;20968;42.696;23.360;2023-02-13T11:25:58;96995.69;;;8.17;52.55
34742;BME280;20968;42.696;23.360;2023-02-13T11:28:24;96987.72;;;8.26;52.68
34742;BME280;20968;42.696;23.360;2023-02-13T11:30:50;96987.47;;;8.40;51.67
34742;BME280;20968;42.696;23.360;2023-02-13T11:35:41;96971.56;;;8.50;52.07
34742;BME280;20968;42.696;23.360;2023-02-13T11:38:25;96968.50;;;8.87;51.56
34742;BME280;20968;42.696;23.360;2023-02-13T11:41:09;96958.53;;;9.32;50.82
34742;BME280;20968;42.696;23.360;2023-02-13T11:48:30;96943.69;;;9.77;47.23
34742;BME280;20968;42.696;23.360;2023-02-13T11:50:55;96940.53;;;9.79;47.16
34742;BME280;20968;42.696;23.360;2023-02-13T11:53:23;96925.66;;;9.76;46.31
34742;BME280;20968;42.696;23.360;2023-02-13T11:56:22;96929.44;;;9.82;46.41
34742;BME280;20968;42.696;23.360;2023-02-13T11:59:00;96920.06;;;9.96;46.51
34742;BME280;20968;42.696;23.360;2023-02-13T12:01:27;96917.28;;;10.27;46.08
34742;BME280;20968;42.696;23.360;2023-02-13T12:04:06;96921.63;;;10.12;43.74
34742;BME280;20968;42.696;23.360;2023-02-13T12:06:38;96912.06;;;9.85;45.41
34742;BME280;20968;42.696;23.360;2023-02-13T12:09:10;96915.09;;;10.07;45.23
34742;BME280;20968;42.696;23.360;2023-02-13T12:11:54;96914.50;;;10.43;43.61
34742;BME280;20968;42.696;23.360;2023-02-13T12:14:28;96916.69;;;10.36;42.97
34742;BME280;20968;42.696;23.360;2023-02-13T12:17:06;96901.09;;;10.45;42.42
34742;BME280;20968;42.696;23.360;2023-02-13T12:30:55;96892.34;;;11.41;43.57
34742;BME280;20968;42.696;23.360;2023-02-13T12:36:20;96894.66;;;11.30;39.62
34742;BME280;20968;42.696;23.360;2023-02-13T12:41:45;96884.47;;;11.02;39.60
34742;BME280;20968;42.696;23.360;2023-02-13T12:44:38;96881.28;;;10.91;38.64
34742;BME280;20968;42.696;23.360;2023-02-13T12:47:18;96872.53;;;10.80;39.17
34742;BME280;20968;42.696;23.360;2023-02-13T12:52:40;96867.69;;;10.43;39.71
34742;BME280;20968;42.696;23.360;2023-02-13T13:08:09;96848.34;;;10.03;40.48
34742;BME280;20968;42.696;23.360;2023-02-13T13:13:41;96835.38;;;10.03;40.86
34742;BME280;20968;42.696;23.360;2023-02-13T13:19:20;96831.72;;;10.22;41.06
34742;BME280;20968;42.696;23.360;2023-02-13T13:21:51;96834.19;;;10.32;40.38
34742;BME280;20968;42.696;23.360;2023-02-13T13:26:51;96820.09;;;10.30;40.51
34742;BME280;20968;42.696;23.360;2023-02-13T13:29:29;96834.41;;;10.38;41.30
34742;BME280;20968;42.696;23.360;2023-02-13T13:32:02;96834.78;;;10.52;40.42
34742;BME280;20968;42.696;23.360;2023-02-13T13:34:30;96826.09;;;10.54;39.63
34742;BME280;20968;42.696;23.360;2023-02-13T13:37:13;96828.81;;;10.41;40.36
34742;BME280;20968;42.696;23.360;2023-02-13T13:45:17;96816.44;;;10.33;40.39
34742;BME280;20968;42.696;23.360;2023-02-13T13:48:06;96822.84;;;10.30;40.86
34742;BME280;20968;42.696;23.360;2023-02-13T13:50:38;96813.78;;;10.30;41.05
34742;BME280;20968;42.696;23.360;2023-02-13T14:03:48;96814.53;;;10.59;40.78
34742;BME280;20968;42.696;23.360;2023-02-13T14:06:17;96800.22;;;10.64;41.12
34742;BME280;20968;42.696;23.360;2023-02-13T14:13:52;96805.94;;;10.57;41.36
34742;BME280;20968;42.696;23.360;2023-02-13T14:16:39;96799.66;;;10.56;41.23
34742;BME280;20968;42.696;23.360;2023-02-13T14:21:52;96808.94;;;10.62;41.10
34742;BME280;20968;42.696;23.360;2023-02-13T14:24:19;96796.44;;;10.45;41.50
34742;BME280;20968;42.696;23.360;2023-02-13T14:26:52;96798.97;;;10.40;41.51
34742;BME280;20968;42.696;23.360;2023-02-13T14:29:31;96792.50;;;10.18;42.39
34742;BME280;20968;42.696;23.360;2023-02-13T14:32:01;96789.28;;;10.07;42.03
34742;BME280;20968;42.696;23.360;2023-02-13T14:34:34;96783.56;;;10.14;42.36
34742;BME280;20968;42.696;23.360;2023-02-13T14:37:06;96786.03;;;10.24;41.88
34742;BME280;20968;42.696;23.360;2023-02-13T14:39:41;96782.16;;;10.22;42.44
34742;BME280;20968;42.696;23.360;2023-02-13T14:42:26;96788.47;;;10.22;41.58
34742;BME280;20968;42.696;23.360;2023-02-13T14:44:55;96787.66;;;9.94;42.65
34742;BME280;20968;42.696;23.360;2023-02-13T14:47:28;96786.59;;;9.75;42.83
34742;BME280;20968;42.696;23.360;2023-02-13T14:49:55;96783.41;;;9.77;43.64
34742;BME280;20968;42.696;23.360;2023-02-13T14:52:24;96781.34;;;9.65;43.02
34742;BME280;20968;42.696;23.360;2023-02-13T14:55:18;96786.56;;;9.31;43.98
34742;BME280;20968;42.696;23.360;2023-02-13T14:58:10;96770.31;;;8.89;45.40
34742;BME280;20968;42.696;23.360;2023-02-13T15:00:42;96773.03;;;8.73;45.97
34742;BME280;20968;42.696;23.360;2023-02-13T15:03:28;96778.06;;;8.58;46.50
34742;BME280;20968;42.696;23.360;2023-02-13T15:06:03;96775.47;;;8.51;46.44
34742;BME280;20968;42.696;23.360;2023-02-13T15:08:34;96767.75;;;8.47;46.42
34742;BME280;20968;42.696;23.360;2023-02-13T15:11:01;96769.25;;;8.32;46.59
34742;BME280;20968;42.696;23.360;2023-02-13T15:13:34;96769.47;;;8.21;47.02
34742;BME280;20968;42.696;23.360;2023-02-13T15:16:06;96766.28;;;8.03;47.20
34742;BME280;20968;42.696;23.360;2023-02-13T15:18:50;96771.00;;;8.03;47.59
34742;BME280;20968;42.696;23.360;2023-02-13T15:21:23;96774.44;;;7.87;47.31
34742;BME280;20968;42.696;23.360;2023-02-13T15:23:54;96775.00;;;7.79;47.72
34742;BME280;20968;42.696;23.360;2023-02-13T15:26:22;96784.13;;;7.72;48.21
34742;BME280;20968;42.696;23.360;2023-02-13T15:29:04;96779.56;;;7.66;47.71
34742;BME280;20968;42.696;23.360;2023-02-13T15:31:36;96785.88;;;7.63;47.98
34742;BME280;20968;42.696;23.360;2023-02-13T15:34:02;96769.63;;;7.53;48.65
34742;BME280;20968;42.696;23.360;2023-02-13T15:36:34;96777.84;;;7.53;48.40
34742;BME280;20968;42.696;23.360;2023-02-13T15:39:04;96782.19;;;7.50;48.64
34742;BME280;20968;42.696;23.360;2023-02-13T15:41:35;96780.78;;;7.42;49.08